Time;durP1;ratioP1;P1;durP2;ratioP2;P2;SDS_P1;SDS_P2;PMS_P1;PMS_P2;Temp;Humidity;BMP_temperature;BMP_pressure;BME280_temperature;BME280_humidity;BME280_pressure;Samples;Min_cycle;Max_cycle;Signal;HPM_P1;HPM_P2
2021/07/09 00:01:35;;;;;;;3.00;2.63;;;19.50;76.80;;;;;;5062739;28;20454;-44
2021/07/09 00:04:01;;;;;;;2.83;2.37;;;19.40;76.70;;;;;;5059333;28;20461;-44
2021/07/09 00:06:28;;;;;;;3.50;3.00;;;19.40;76.90;;;;;;5060744;28;20988;-43
2021/07/09 00:08:55;;;;;;;4.97;2.93;;;19.40;77.20;;;;;;5062839;28;20462;-44
2021/07/09 00:11:21;;;;;;;3.83;2.63;;;19.40;77.50;;;;;;5059966;28;20462;-43
2021/07/09 00:13:48;;;;;;;3.40;2.77;;;19.40;77.70;;;;;;5062688;28;20486;-44
2021/07/09 00:16:16;;;;;;;5.23;3.40;;;19.30;77.80;;;;;;5061778;28;20497;-44
2021/07/09 00:18:45;;;;;;;3.10;2.80;;;19.30;77.70;;;;;;5059644;28;20479;-44
2021/07/09 00:21:12;;;;;;;3.57;2.97;;;19.30;77.90;;;;;;5059458;28;20533;-44
2021/07/09 00:23:39;;;;;;;2.43;2.23;;;19.30;78.00;;;;;;5063768;28;20453;-44
2021/07/09 00:26:06;;;;;;;3.53;3.23;;;19.30;78.00;;;;;;5062714;28;20458;-43
2021/07/09 00:28:33;;;;;;;3.37;2.80;;;19.40;78.10;;;;;;5063007;28;20469;-44
2021/07/09 00:31:01;;;;;;;2.70;2.50;;;19.40;78.00;;;;;;5062955;28;20462;-44
2021/07/09 00:33:28;;;;;;;2.83;2.53;;;19.30;78.30;;;;;;5061139;28;20518;-44
2021/07/09 00:35:54;;;;;;;3.23;2.93;;;19.30;78.50;;;;;;5063456;28;20458;-44
2021/07/09 00:38:21;;;;;;;3.23;3.00;;;19.30;78.70;;;;;;5061727;28;20459;-44
2021/07/09 00:40:48;;;;;;;3.33;2.50;;;19.30;78.80;;;;;;5062043;28;20507;-44
2021/07/09 00:43:15;;;;;;;3.73;3.10;;;19.30;79.10;;;;;;5063389;28;20449;-44
2021/07/09 00:45:42;;;;;;;4.00;3.53;;;19.30;79.50;;;;;;5060589;28;20490;-44
2021/07/09 00:48:09;;;;;;;4.53;3.10;;;19.20;79.80;;;;;;5061714;28;21110;-43
2021/07/09 00:50:36;;;;;;;3.87;3.20;;;19.20;80.50;;;;;;5061267;28;20464;-44
2021/07/09 00:53:03;;;;;;;3.60;3.30;;;19.10;80.60;;;;;;5058563;28;20466;-44
2021/07/09 00:55:30;;;;;;;3.70;3.40;;;19.10;81.10;;;;;;5060897;28;20805;-44
2021/07/09 00:58:00;;;;;;;3.37;3.07;;;19.00;81.40;;;;;;5063505;28;20541;-44
2021/07/09 01:00:28;;;;;;;4.13;3.30;;;19.00;81.70;;;;;;5060798;28;20808;-44
2021/07/09 01:02:56;;;;;;;3.67;3.30;;;19.00;82.10;;;;;;5061688;28;20966;-43
2021/07/09 01:05:23;;;;;;;3.40;2.93;;;19.00;81.90;;;;;;5060935;28;20466;-43
2021/07/09 01:07:50;;;;;;;4.33;3.93;;;19.00;81.90;;;;;;5071121;28;20462;-43
2021/07/09 01:10:19;;;;;;;4.20;3.80;;;19.00;82.10;;;;;;5059743;28;20459;-43
2021/07/09 01:12:46;;;;;;;5.13;3.70;;;19.00;82.20;;;;;;5061633;28;20453;-44
2021/07/09 01:15:16;;;;;;;4.30;3.20;;;19.00;82.10;;;;;;5059343;28;20481;-44
2021/07/09 01:17:43;;;;;;;4.03;3.23;;;18.90;82.00;;;;;;5061064;28;20513;-43
2021/07/09 01:20:13;;;;;;;6.30;3.10;;;18.90;81.90;;;;;;5087407;28;20454;-44
2021/07/09 01:22:42;;;;;;;4.33;3.40;;;18.90;81.80;;;;;;5087091;28;22736;-45
2021/07/09 01:25:13;;;;;;;3.97;3.67;;;18.80;81.80;;;;;;5062249;28;20496;-45
2021/07/09 01:27:42;;;;;;;4.40;4.00;;;18.80;81.90;;;;;;5062355;28;20461;-45
2021/07/09 01:30:12;;;;;;;4.30;3.93;;;18.80;82.00;;;;;;5060639;28;20465;-45
2021/07/09 01:32:39;;;;;;;3.87;3.50;;;18.80;82.00;;;;;;5060817;28;20458;-45
2021/07/09 01:35:07;;;;;;;5.20;3.07;;;18.80;82.20;;;;;;5062209;28;20822;-45
2021/07/09 01:37:34;;;;;;;3.63;3.33;;;18.70;82.40;;;;;;5062678;28;20442;-44
2021/07/09 01:40:10;;;;;;;5.43;4.30;;;18.70;82.50;;;;;;5057313;28;20460;-45
2021/07/09 01:42:38;;;;;;;4.20;3.80;;;18.70;82.80;;;;;;5062463;28;20450;-44
2021/07/09 01:45:06;;;;;;;3.70;3.40;;;18.70;82.80;;;;;;5045523;28;20459;-44
2021/07/09 01:47:33;;;;;;;5.30;3.30;;;18.70;82.90;;;;;;5086100;28;20922;-45
2021/07/09 01:50:05;;;;;;;6.50;3.63;;;18.70;83.00;;;;;;5058256;28;20831;-45
2021/07/09 01:52:32;;;;;;;4.83;4.33;;;18.60;83.00;;;;;;5059780;28;20458;-45
2021/07/09 01:54:59;;;;;;;7.90;4.77;;;18.60;83.20;;;;;;5062672;28;20481;-44
2021/07/09 01:57:27;;;;;;;5.30;4.80;;;18.60;83.40;;;;;;5060320;28;20465;-44
2021/07/09 01:59:56;;;;;;;5.37;4.37;;;18.60;83.50;;;;;;5059215;28;20517;-45
2021/07/09 02:02:23;;;;;;;4.77;3.93;;;18.60;83.70;;;;;;5064084;28;20492;-44
2021/07/09 02:04:58;;;;;;;4.23;3.70;;;18.60;83.80;;;;;;5064614;28;20459;-43
2021/07/09 02:07:25;;;;;;;4.67;4.20;;;18.70;83.40;;;;;;5064469;28;20788;-43
2021/07/09 02:09:57;;;;;;;5.10;4.60;;;18.70;83.20;;;;;;5087873;28;20525;-43
2021/07/09 02:12:27;;;;;;;6.90;4.10;;;18.70;83.20;;;;;;5065556;28;20462;-43
2021/07/09 02:14:54;;;;;;;8.50;4.20;;;18.70;83.10;;;;;;5085323;28;20492;-43
2021/07/09 02:17:24;;;;;;;7.50;4.37;;;18.70;83.20;;;;;;5061120;28;20465;-43
2021/07/09 02:19:52;;;;;;;8.67;3.60;;;18.70;83.20;;;;;;5058564;28;20458;-42
2021/07/09 02:22:20;;;;;;;5.37;3.97;;;18.70;83.30;;;;;;5058444;28;20466;-42
2021/07/09 02:24:48;;;;;;;12.23;5.17;;;18.70;83.40;;;;;;5055715;28;20480;-42
2021/07/09 02:27:15;;;;;;;4.73;3.60;;;18.70;83.50;;;;;;5055003;28;20473;-42
2021/07/09 02:29:42;;;;;;;4.03;3.63;;;18.70;83.60;;;;;;5056965;28;20752;-43
2021/07/09 02:32:10;;;;;;;4.93;4.27;;;18.70;83.70;;;;;;5069379;28;20468;-42
2021/07/09 02:34:39;;;;;;;5.20;4.47;;;18.70;83.30;;;;;;5058804;28;20535;-42
2021/07/09 02:37:09;;;;;;;6.93;4.37;;;18.80;82.90;;;;;;5060500;28;20445;-42
2021/07/09 02:39:37;;;;;;;4.90;4.40;;;18.70;82.90;;;;;;5060140;28;20458;-42
2021/07/09 02:42:04;;;;;;;5.00;3.77;;;18.70;82.90;;;;;;5059284;28;20520;-43
2021/07/09 02:44:31;;;;;;;5.70;5.00;;;18.70;83.10;;;;;;5056598;28;20974;-44
2021/07/09 02:46:58;;;;;;;5.23;4.30;;;18.70;82.90;;;;;;5062167;28;20463;-44
2021/07/09 02:49:25;;;;;;;5.77;4.90;;;18.60;82.90;;;;;;5060778;28;20462;-44
2021/07/09 02:51:52;;;;;;;4.73;4.17;;;18.60;83.10;;;;;;5060761;28;20462;-44
2021/07/09 02:54:18;;;;;;;5.13;4.50;;;18.60;83.20;;;;;;5066160;28;20481;-44
2021/07/09 02:56:46;;;;;;;4.60;4.10;;;18.60;83.20;;;;;;5060525;28;20458;-44
2021/07/09 02:59:13;;;;;;;5.03;4.53;;;18.60;82.80;;;;;;5065682;28;20465;-44
2021/07/09 03:01:42;;;;;;;7.03;4.60;;;18.60;82.70;;;;;;5062031;28;20453;-43
2021/07/09 03:04:13;;;;;;;6.23;4.97;;;18.60;82.60;;;;;;5064173;28;20461;-44
2021/07/09 03:06:40;;;;;;;6.60;5.37;;;18.60;82.80;;;;;;5063014;28;20484;-44
2021/07/09 03:09:09;;;;;;;5.43;4.87;;;18.50;82.80;;;;;;5065978;28;20453;-44
2021/07/09 03:11:38;;;;;;;6.60;5.30;;;18.50;82.90;;;;;;5062247;28;20455;-44
2021/07/09 03:14:09;;;;;;;6.47;5.27;;;18.50;82.80;;;;;;5064180;28;20450;-43
2021/07/09 03:16:37;;;;;;;17.17;6.10;;;18.50;82.90;;;;;;5060208;28;20792;-44
2021/07/09 03:19:06;;;;;;;6.33;5.40;;;18.50;82.70;;;;;;5060199;28;20530;-44
2021/07/09 03:21:34;;;;;;;5.67;5.27;;;18.50;82.60;;;;;;5063631;28;20460;-44
2021/07/09 03:24:02;;;;;;;5.63;5.03;;;18.50;82.60;;;;;;5065357;28;20599;-43
2021/07/09 03:26:30;;;;;;;6.03;5.53;;;18.50;82.60;;;;;;5064252;28;20463;-44
2021/07/09 03:28:59;;;;;;;6.80;6.10;;;18.50;82.50;;;;;;5065693;28;20456;-44
2021/07/09 03:31:30;;;;;;;7.33;6.47;;;18.50;82.30;;;;;;5092303;28;20953;-43
2021/07/09 03:33:57;;;;;;;9.83;7.20;;;18.50;82.30;;;;;;5062043;28;20804;-44
2021/07/09 03:36:25;;;;;;;7.13;6.53;;;18.50;82.30;;;;;;5064478;28;20499;-44
2021/07/09 03:38:53;;;;;;;7.97;7.17;;;18.50;82.30;;;;;;5067490;28;20463;-44
2021/07/09 03:41:20;;;;;;;10.17;8.03;;;18.50;82.30;;;;;;5066905;28;20464;-43
2021/07/09 03:43:47;;;;;;;7.80;7.10;;;18.50;82.30;;;;;;5063814;28;20446;-44
2021/07/09 03:46:17;;;;;;;8.50;7.70;;;18.50;82.40;;;;;;5063528;28;20510;-44
2021/07/09 03:48:44;;;;;;;9.97;8.80;;;18.50;82.50;;;;;;5061994;28;20480;-42
2021/07/09 03:51:11;;;;;;;11.50;8.13;;;18.50;82.50;;;;;;5062860;28;20469;-43
2021/07/09 03:53:39;;;;;;;13.23;9.23;;;18.50;82.50;;;;;;5088653;28;20461;-43
2021/07/09 03:56:05;;;;;;;9.20;8.00;;;18.50;82.60;;;;;;5089995;28;20885;-43
2021/07/09 03:58:33;;;;;;;8.43;7.53;;;18.50;82.70;;;;;;5062882;28;20469;-43
2021/07/09 04:01:00;;;;;;;10.13;8.00;;;18.50;82.70;;;;;;5059263;28;20450;-43
2021/07/09 04:03:27;;;;;;;20.67;9.10;;;18.60;82.50;;;;;;5063278;28;20486;-43
2021/07/09 04:05:54;;;;;;;8.40;7.60;;;18.60;82.30;;;;;;5060716;28;20455;-43
2021/07/09 04:08:21;;;;;;;9.00;8.10;;;18.60;82.40;;;;;;5063818;28;20618;-43
2021/07/09 04:10:48;;;;;;;10.43;8.33;;;18.60;82.40;;;;;;5064174;28;20457;-43
2021/07/09 04:13:15;;;;;;;10.60;9.00;;;18.60;82.40;;;;;;5059169;28;20497;-43
2021/07/09 04:15:42;;;;;;;10.37;8.83;;;18.60;82.30;;;;;;5061538;28;20490;-43
2021/07/09 04:18:09;;;;;;;12.70;9.60;;;18.60;82.10;;;;;;5093545;28;20589;-43
2021/07/09 04:20:36;;;;;;;9.47;8.57;;;18.60;81.90;;;;;;5092723;28;20462;-43
2021/07/09 04:23:03;;;;;;;11.87;8.90;;;18.60;81.80;;;;;;5061012;28;20540;-43
2021/07/09 04:25:30;;;;;;;10.30;8.33;;;18.50;82.00;;;;;;5060709;28;20549;-42
2021/07/09 04:27:57;;;;;;;10.50;9.40;;;18.50;82.00;;;;;;5061814;28;20459;-43
2021/07/09 04:30:24;;;;;;;9.57;8.37;;;18.50;82.10;;;;;;5063111;28;20673;-43
2021/07/09 04:32:51;;;;;;;10.90;8.63;;;18.50;82.20;;;;;;5057055;28;20885;-43
2021/07/09 04:35:18;;;;;;;9.80;8.90;;;18.50;82.20;;;;;;5060282;28;20501;-43
2021/07/09 04:37:45;;;;;;;9.90;8.47;;;18.50;82.30;;;;;;5062224;28;20491;-42
2021/07/09 04:40:12;;;;;;;9.60;8.67;;;18.50;82.40;;;;;;5064229;28;20457;-43
2021/07/09 04:42:39;;;;;;;10.33;9.10;;;18.50;82.40;;;;;;5086397;28;20466;-43
2021/07/09 04:45:06;;;;;;;12.53;9.77;;;18.50;82.60;;;;;;5065007;28;20927;-43
2021/07/09 04:47:33;;;;;;;11.37;9.83;;;18.50;82.60;;;;;;5062537;28;20465;-43
2021/07/09 04:50:00;;;;;;;11.70;9.37;;;18.50;82.80;;;;;;5064847;28;20438;-43
2021/07/09 04:52:27;;;;;;;11.17;9.47;;;18.50;82.90;;;;;;5063585;28;20453;-42
2021/07/09 04:54:54;;;;;;;10.97;9.73;;;18.50;83.10;;;;;;5059011;28;20846;-43
2021/07/09 04:57:21;;;;;;;11.97;10.23;;;18.50;83.20;;;;;;5061712;28;20785;-42
2021/07/09 04:59:48;;;;;;;11.30;10.20;;;18.50;83.40;;;;;;5061297;28;20815;-42
2021/07/09 05:02:14;;;;;;;11.07;9.83;;;18.50;83.70;;;;;;5062416;28;21039;-42
2021/07/09 05:04:41;;;;;;;11.90;9.97;;;18.50;83.80;;;;;;5061317;28;20920;-42
2021/07/09 05:07:08;;;;;;;13.20;11.27;;;18.50;84.10;;;;;;5066791;28;20537;-42
2021/07/09 05:09:34;;;;;;;13.23;11.07;;;18.50;84.30;;;;;;5056400;28;20458;-42
2021/07/09 05:12:01;;;;;;;14.00;11.30;;;18.50;84.50;;;;;;5087388;28;20935;-42
2021/07/09 05:14:28;;;;;;;13.13;11.57;;;18.50;84.90;;;;;;5058285;28;20823;-42
2021/07/09 05:16:55;;;;;;;12.23;10.97;;;18.40;85.10;;;;;;5062640;28;20490;-42
2021/07/09 05:19:22;;;;;;;14.03;12.50;;;18.40;85.30;;;;;;5057662;28;20489;-42
2021/07/09 05:21:49;;;;;;;12.50;11.20;;;18.40;85.50;;;;;;5054629;28;20469;-42
2021/07/09 05:24:25;;;;;;;19.60;12.37;;;18.40;85.70;;;;;;5063202;28;20496;-42
2021/07/09 05:26:55;;;;;;;15.07;12.80;;;18.30;85.90;;;;;;5062024;28;20868;-42
2021/07/09 05:29:22;;;;;;;17.73;12.23;;;18.30;86.30;;;;;;5061326;28;20460;-42
2021/07/09 05:31:51;;;;;;;15.90;13.03;;;18.30;86.50;;;;;;5086798;28;20468;-43
2021/07/09 05:34:18;;;;;;;15.03;12.07;;;18.40;86.60;;;;;;5061877;28;20493;-43
2021/07/09 05:36:46;;;;;;;16.27;12.50;;;18.40;86.40;;;;;;5061116;28;20482;-43
2021/07/09 05:39:15;;;;;;;16.83;12.30;;;18.30;86.40;;;;;;5058399;28;20457;-43
2021/07/09 05:41:43;;;;;;;21.77;12.07;;;18.30;86.70;;;;;;5058217;28;20960;-43
2021/07/09 05:44:11;;;;;;;18.13;12.47;;;18.40;86.80;;;;;;5054900;28;20454;-43
2021/07/09 05:46:38;;;;;;;16.93;12.40;;;18.40;86.90;;;;;;5088278;28;20473;-43
2021/07/09 05:49:04;;;;;;;14.37;12.87;;;18.40;86.90;;;;;;5059247;28;20457;-43
2021/07/09 05:51:31;;;;;;;14.40;12.47;;;18.30;86.80;;;;;;5058526;28;20975;-43
2021/07/09 05:53:58;;;;;;;15.07;12.73;;;18.30;87.10;;;;;;5059446;28;20841;-42
2021/07/09 05:56:25;;;;;;;15.60;13.60;;;18.30;87.40;;;;;;5086075;28;20483;-42
2021/07/09 05:58:51;;;;;;;16.37;12.63;;;18.30;87.40;;;;;;5060022;28;20459;-42
2021/07/09 06:01:18;;;;;;;15.13;13.40;;;18.30;87.40;;;;;;5061376;28;20459;-43
2021/07/09 06:03:45;;;;;;;14.87;12.80;;;18.30;87.60;;;;;;5061137;28;20468;-43
2021/07/09 06:06:12;;;;;;;15.77;13.10;;;18.30;87.60;;;;;;5056893;28;20465;-43
2021/07/09 06:08:39;;;;;;;15.40;13.13;;;18.30;87.80;;;;;;5056929;28;20470;-43
2021/07/09 06:11:06;;;;;;;16.30;13.80;;;18.30;87.90;;;;;;5087183;28;21219;-43
2021/07/09 06:13:33;;;;;;;15.17;12.37;;;18.30;88.00;;;;;;5060864;28;20470;-43
2021/07/09 06:16:00;;;;;;;18.83;14.10;;;18.30;87.90;;;;;;5087600;28;20485;-43
2021/07/09 06:18:27;;;;;;;17.30;13.37;;;18.40;87.70;;;;;;5060180;28;20894;-42
2021/07/09 06:20:54;;;;;;;16.50;13.90;;;18.40;87.70;;;;;;5057309;28;20472;-43
2021/07/09 06:23:21;;;;;;;14.20;12.73;;;18.40;87.70;;;;;;5057339;28;20458;-43
2021/07/09 06:25:47;;;;;;;16.57;14.90;;;18.40;87.90;;;;;;5058287;28;20473;-43
2021/07/09 06:28:14;;;;;;;17.33;13.90;;;18.40;88.00;;;;;;5056701;28;20466;-43
2021/07/09 06:30:41;;;;;;;16.20;14.50;;;18.40;88.00;;;;;;5060197;28;20484;-43
2021/07/09 06:33:08;;;;;;;16.30;13.73;;;18.40;88.10;;;;;;5057315;28;20459;-43
2021/07/09 06:35:39;;;;;;;19.87;15.03;;;18.40;88.00;;;;;;5059753;28;20489;-43
2021/07/09 06:38:06;;;;;;;18.30;16.40;;;18.30;88.20;;;;;;5060127;28;20446;-44
2021/07/09 06:40:33;;;;;;;18.50;15.40;;;18.30;88.30;;;;;;5058113;28;20466;-43
2021/07/09 06:43:00;;;;;;;22.90;17.57;;;18.30;88.20;;;;;;5061208;28;20445;-43
2021/07/09 06:45:27;;;;;;;20.30;18.10;;;18.40;88.10;;;;;;5060597;28;20813;-44
2021/07/09 06:47:54;;;;;;;23.33;18.63;;;18.30;88.10;;;;;;5063875;28;20820;-43
2021/07/09 06:50:21;;;;;;;23.60;17.20;;;18.30;88.20;;;;;;5063333;28;20450;-43
2021/07/09 06:52:47;;;;;;;23.87;19.93;;;18.30;88.20;;;;;;5061678;28;20465;-43
2021/07/09 06:55:14;;;;;;;22.13;18.00;;;18.30;88.30;;;;;;5090076;28;20925;-43
2021/07/09 06:57:46;;;;;;;24.37;19.57;;;18.30;88.40;;;;;;5062579;28;20443;-43
2021/07/09 07:00:18;;;;;;;21.60;18.50;;;18.30;88.40;;;;;;5064009;28;20451;-43
2021/07/09 07:02:46;;;;;;;26.07;21.10;;;18.30;88.40;;;;;;5061358;28;20449;-43
2021/07/09 07:05:14;;;;;;;29.30;20.23;;;18.30;88.50;;;;;;5057672;28;20457;-43
2021/07/09 07:07:41;;;;;;;26.63;19.97;;;18.40;88.60;;;;;;5059197;28;20461;-43
2021/07/09 07:10:09;;;;;;;24.87;19.37;;;18.40;88.70;;;;;;5086179;28;20468;-43
2021/07/09 07:12:37;;;;;;;27.83;21.00;;;18.40;88.30;;;;;;5058525;28;20461;-43
2021/07/09 07:15:07;;;;;;;27.63;20.27;;;18.50;88.30;;;;;;5056975;28;20458;-43
2021/07/09 07:17:35;;;;;;;26.90;21.10;;;18.50;88.00;;;;;;5063292;28;20561;-43
2021/07/09 07:20:04;;;;;;;28.47;22.40;;;18.50;88.00;;;;;;5057557;28;20497;-43
2021/07/09 07:22:31;;;;;;;27.30;20.57;;;18.50;87.60;;;;;;5059795;28;20612;-43
2021/07/09 07:24:58;;;;;;;28.53;21.40;;;18.50;87.60;;;;;;5058172;28;20464;-43
2021/07/09 07:27:27;;;;;;;27.30;21.53;;;18.50;87.60;;;;;;5057037;28;20468;-44
2021/07/09 07:29:58;;;;;;;29.73;23.40;;;18.50;87.60;;;;;;5057457;28;20453;-44
2021/07/09 07:32:26;;;;;;;28.53;22.07;;;18.50;87.70;;;;;;5055145;28;20948;-43
2021/07/09 07:34:53;;;;;;;28.23;22.77;;;18.50;87.90;;;;;;5059746;28;20481;-43
2021/07/09 07:37:21;;;;;;;27.67;22.30;;;18.50;87.60;;;;;;5061229;28;20492;-43
2021/07/09 07:39:48;;;;;;;31.27;23.57;;;18.50;87.60;;;;;;5058713;28;20438;-43
2021/07/09 07:42:15;;;;;;;30.03;21.90;;;18.50;87.60;;;;;;5058583;28;20883;-43
2021/07/09 07:44:44;;;;;;;31.10;24.37;;;18.50;87.40;;;;;;5058324;28;20811;-43
2021/07/09 07:47:11;;;;;;;29.73;22.30;;;18.50;87.60;;;;;;5059087;28;20452;-43
2021/07/09 07:49:38;;;;;;;33.73;23.80;;;18.50;87.50;;;;;;5059176;28;20529;-43
2021/07/09 07:52:04;;;;;;;30.33;23.90;;;18.50;87.60;;;;;;5058406;28;20472;-43
2021/07/09 07:54:31;;;;;;;31.03;23.10;;;18.50;87.70;;;;;;5058449;28;20447;-43
2021/07/09 07:57:01;;;;;;;32.43;23.30;;;18.60;87.50;;;;;;5055586;28;20846;-43
2021/07/09 07:59:30;;;;;;;29.33;22.97;;;18.60;87.50;;;;;;5057796;28;20463;-43
2021/07/09 08:01:57;;;;;;;32.47;23.60;;;18.60;87.70;;;;;;5090590;28;20870;-43
2021/07/09 08:04:24;;;;;;;30.90;23.80;;;18.60;87.60;;;;;;5058781;28;20438;-43
2021/07/09 08:06:51;;;;;;;27.50;21.93;;;18.60;87.80;;;;;;5057122;28;20577;-43
2021/07/09 08:09:18;;;;;;;30.20;23.67;;;18.60;87.80;;;;;;5056022;28;21001;-43
2021/07/09 08:11:45;;;;;;;34.63;23.83;;;18.60;88.00;;;;;;5058124;28;21101;-43
2021/07/09 08:14:12;;;;;;;29.30;21.73;;;18.60;87.60;;;;;;5058397;28;21023;-43
2021/07/09 08:16:38;;;;;;;31.53;23.53;;;18.60;87.30;;;;;;5060326;28;20508;-43
2021/07/09 08:19:05;;;;;;;27.97;22.10;;;18.60;87.30;;;;;;5058471;28;20471;-43
2021/07/09 08:21:32;;;;;;;27.73;22.40;;;18.60;87.30;;;;;;5057466;28;20500;-43
2021/07/09 08:23:59;;;;;;;28.37;22.60;;;18.60;87.50;;;;;;5065307;28;20971;-43
2021/07/09 08:26:26;;;;;;;34.23;25.00;;;18.60;87.60;;;;;;5058448;28;20470;-43
2021/07/09 08:28:53;;;;;;;30.97;24.13;;;18.60;87.50;;;;;;5090073;28;20447;-43
2021/07/09 08:31:20;;;;;;;32.63;23.03;;;18.60;87.60;;;;;;5057750;28;20947;-43
2021/07/09 08:33:47;;;;;;;33.10;25.40;;;18.60;87.70;;;;;;5059790;28;20454;-43
2021/07/09 08:36:18;;;;;;;30.93;24.03;;;18.60;87.70;;;;;;5059748;28;20490;-43
2021/07/09 08:38:45;;;;;;;29.50;22.60;;;18.70;87.80;;;;;;5058215;28;21051;-43
2021/07/09 08:41:13;;;;;;;35.50;23.83;;;18.70;87.80;;;;;;5059996;28;20443;-43
2021/07/09 08:43:40;;;;;;;33.40;25.20;;;18.70;87.80;;;;;;5058520;28;20473;-43
2021/07/09 08:46:07;;;;;;;29.73;24.30;;;18.80;87.70;;;;;;5058098;28;20441;-43
2021/07/09 08:48:44;;;;;;;32.73;24.97;;;18.80;87.20;;;;;;5055080;28;20474;-43
2021/07/09 08:51:11;;;;;;;32.40;25.70;;;18.90;87.00;;;;;;5055022;28;20459;-43
2021/07/09 08:53:39;;;;;;;33.17;24.40;;;18.90;86.60;;;;;;5057496;28;20461;-43
2021/07/09 08:56:06;;;;;;;33.17;24.43;;;19.00;85.60;;;;;;5055126;28;20535;-43
2021/07/09 08:58:33;;;;;;;32.13;24.77;;;19.00;86.00;;;;;;5057744;28;20453;-43
2021/07/09 09:01:00;;;;;;;29.07;23.47;;;19.10;86.10;;;;;;5055909;28;20781;-43
2021/07/09 09:03:28;;;;;;;29.80;22.97;;;19.10;86.50;;;;;;5056107;28;20542;-43
2021/07/09 09:06:00;;;;;;;35.07;25.50;;;19.20;85.80;;;;;;5056072;28;20549;-43
2021/07/09 09:08:29;;;;;;;32.13;23.10;;;19.20;86.10;;;;;;5059650;28;20461;-43
2021/07/09 09:11:00;;;;;;;32.13;24.63;;;19.30;85.60;;;;;;5059940;28;20450;-43
2021/07/09 09:13:30;;;;;;;33.27;26.30;;;19.30;85.40;;;;;;5058838;28;20566;-43
2021/07/09 09:16:12;;;;;;;35.53;26.27;;;19.40;85.60;;;;;;5059340;28;20489;-43
2021/07/09 09:18:45;;;;;;;33.77;24.87;;;19.40;85.70;;;;;;5056989;28;20477;-43
2021/07/09 09:21:17;;;;;;;37.07;26.53;;;19.50;85.70;;;;;;5055687;28;20509;-43
2021/07/09 09:23:50;;;;;;;33.87;25.67;;;19.60;85.50;;;;;;5053437;28;20462;-43
2021/07/09 09:26:40;;;;;;;34.07;25.50;;;19.60;85.20;;;;;;5056364;28;20831;-43
2021/07/09 09:29:30;;;;;;;32.63;25.50;;;19.70;85.40;;;;;;5054049;28;20454;-43
2021/07/09 09:32:00;;;;;;;34.13;24.80;;;19.80;84.90;;;;;;5047954;28;20470;-43
2021/07/09 09:34:47;;;;;;;35.07;24.40;;;19.90;84.50;;;;;;5057439;28;20984;-43
2021/07/09 09:37:23;;;;;;;32.80;23.30;;;20.00;84.30;;;;;;5056943;28;20482;-43
2021/07/09 09:39:52;;;;;;;28.57;22.37;;;20.10;83.30;;;;;;5055815;28;20437;-43
2021/07/09 09:42:22;;;;;;;30.33;22.20;;;20.20;82.50;;;;;;5087970;28;20797;-43
2021/07/09 09:45:00;;;;;;;31.10;22.73;;;20.40;82.50;;;;;;5085868;28;20450;-43
2021/07/09 09:47:31;;;;;;;26.57;20.07;;;20.50;81.20;;;;;;5058058;28;20463;-43
2021/07/09 09:50:00;;;;;;;20.73;17.40;;;20.60;80.70;;;;;;5055132;28;20458;-43
2021/07/09 09:52:51;;;;;;;22.00;18.40;;;20.70;79.70;;;;;;5055910;28;20470;-43
2021/07/09 09:55:18;;;;;;;24.00;18.93;;;20.80;78.00;;;;;;5056381;28;20462;-43
2021/07/09 09:57:46;;;;;;;20.67;15.77;;;20.80;78.30;;;;;;5056408;28;20482;-44
2021/07/09 10:00:16;;;;;;;23.27;17.40;;;20.90;78.50;;;;;;5056303;28;20458;-43
2021/07/09 10:02:44;;;;;;;21.70;16.60;;;20.90;78.60;;;;;;5056928;28;20455;-43
2021/07/09 10:05:11;;;;;;;21.10;15.97;;;20.90;78.50;;;;;;5056562;28;20455;-43
2021/07/09 10:07:38;;;;;;;22.40;15.83;;;21.00;77.50;;;;;;5055163;28;20468;-43
2021/07/09 10:10:06;;;;;;;18.13;15.57;;;21.10;77.10;;;;;;5052007;28;20843;-43
2021/07/09 10:12:54;;;;;;;20.87;17.60;;;21.10;77.00;;;;;;5060549;28;20979;-43
2021/07/09 10:15:24;;;;;;;19.57;17.03;;;21.10;77.00;;;;;;5055565;28;20455;-43
2021/07/09 10:17:54;;;;;;;20.30;16.40;;;21.10;76.70;;;;;;5055410;28;20490;-43
2021/07/09 10:20:22;;;;;;;19.97;16.67;;;21.10;76.50;;;;;;5057220;28;20454;-43
2021/07/09 10:22:50;;;;;;;24.63;16.87;;;21.10;76.40;;;;;;5055294;28;20454;-44
2021/07/09 10:25:19;;;;;;;19.23;16.23;;;21.10;77.00;;;;;;5053958;28;20455;-43
2021/07/09 10:27:46;;;;;;;18.13;15.83;;;21.10;76.40;;;;;;5058720;28;20465;-43
2021/07/09 10:30:14;;;;;;;19.30;15.47;;;21.20;76.40;;;;;;5054453;28;20466;-43
2021/07/09 10:32:48;;;;;;;19.90;15.10;;;21.20;75.40;;;;;;5082181;28;20470;-44
2021/07/09 10:35:41;;;;;;;19.90;16.47;;;21.20;76.40;;;;;;5083379;28;20952;-43
2021/07/09 10:38:21;;;;;;;17.90;14.10;;;21.30;75.40;;;;;;5062717;28;20772;-44
2021/07/09 10:40:47;;;;;;;13.63;12.03;;;21.30;75.70;;;;;;5056372;28;20804;-43
2021/07/09 10:43:15;;;;;;;19.30;14.07;;;21.30;74.60;;;;;;5059875;28;20465;-43
2021/07/09 10:45:42;;;;;;;15.13;13.30;;;21.30;74.60;;;;;;5055736;28;20467;-43
2021/07/09 10:48:16;;;;;;;17.27;13.23;;;21.30;74.90;;;;;;5060090;28;20446;-43
2021/07/09 10:50:51;;;;;;;17.37;13.30;;;21.40;73.60;;;;;;5085409;28;20454;-43
2021/07/09 10:53:18;;;;;;;15.77;14.00;;;21.40;74.30;;;;;;5057997;28;20467;-43
2021/07/09 10:56:00;;;;;;;15.00;12.90;;;21.50;72.80;;;;;;5054341;28;20595;-43
2021/07/09 10:58:30;;;;;;;16.07;14.03;;;21.60;72.40;;;;;;5059678;28;20457;-43
2021/07/09 11:00:59;;;;;;;16.00;14.30;;;21.60;74.10;;;;;;5086173;28;20546;-43
2021/07/09 11:03:27;;;;;;;14.90;13.30;;;21.60;73.30;;;;;;5055289;28;20450;-44
2021/07/09 11:06:03;;;;;;;16.30;14.23;;;21.60;73.30;;;;;;5055880;28;20481;-43
2021/07/09 11:08:43;;;;;;;15.03;12.63;;;21.70;72.90;;;;;;5053517;28;20548;-43
2021/07/09 11:11:14;;;;;;;14.77;13.13;;;21.90;71.60;;;;;;5056300;28;20457;-43
2021/07/09 11:13:57;;;;;;;16.20;12.67;;;21.90;71.50;;;;;;5061195;28;20488;-43
2021/07/09 11:16:37;;;;;;;12.57;11.27;;;21.90;69.70;;;;;;5059546;28;20517;-43
2021/07/09 11:19:10;;;;;;;14.23;11.97;;;22.00;69.70;;;;;;5060223;28;20577;-43
2021/07/09 11:21:51;;;;;;;13.70;11.13;;;22.10;70.30;;;;;;5090238;28;20445;-44
2021/07/09 11:24:26;;;;;;;11.30;10.07;;;22.20;69.20;;;;;;5058966;28;20484;-44
2021/07/09 11:27:04;;;;;;;10.70;9.60;;;22.20;67.60;;;;;;5058561;28;20545;-43
2021/07/09 11:29:40;;;;;;;10.27;9.30;;;22.20;67.80;;;;;;5058473;28;20560;-43
2021/07/09 11:32:17;;;;;;;10.77;8.33;;;22.20;68.20;;;;;;5058487;28;20450;-43
2021/07/09 11:34:55;;;;;;;7.93;7.13;;;22.20;66.80;;;;;;5090041;28;20458;-44
2021/07/09 11:37:28;;;;;;;7.83;6.83;;;22.20;67.70;;;;;;5064555;28;20695;-43
2021/07/09 11:39:59;;;;;;;8.10;6.60;;;22.20;67.90;;;;;;5056039;28;20812;-44
2021/07/09 11:42:27;;;;;;;7.33;6.53;;;22.30;65.90;;;;;;5061406;28;20533;-44
2021/07/09 11:44:59;;;;;;;7.20;6.60;;;22.40;64.70;;;;;;5059527;28;20545;-44
2021/07/09 11:47:29;;;;;;;7.50;6.30;;;22.60;63.20;;;;;;5090614;28;20452;-44
2021/07/09 11:49:58;;;;;;;7.13;6.43;;;22.70;64.90;;;;;;5059044;28;20457;-44
2021/07/09 11:52:30;;;;;;;9.30;5.93;;;22.70;65.20;;;;;;5057248;28;20461;-44
2021/07/09 11:54:59;;;;;;;8.17;5.90;;;22.70;64.30;;;;;;5057688;28;20457;-44
2021/07/09 11:57:28;;;;;;;6.70;6.00;;;22.70;63.20;;;;;;5054427;28;21791;-43
2021/07/09 12:00:10;;;;;;;7.47;6.77;;;22.70;62.00;;;;;;5061296;28;20451;-44
2021/07/09 12:02:38;;;;;;;6.53;5.90;;;22.70;61.80;;;;;;5055026;28;20458;-44
2021/07/09 12:05:11;;;;;;;9.87;6.03;;;22.70;62.20;;;;;;5092935;28;20484;-44
2021/07/09 12:07:38;;;;;;;7.73;6.97;;;22.70;63.20;;;;;;5054806;28;20454;-44
2021/07/09 12:10:12;;;;;;;9.23;8.43;;;22.80;64.10;;;;;;5057789;28;20446;-44
2021/07/09 12:12:42;;;;;;;10.87;8.70;;;22.80;63.40;;;;;;5061071;28;20450;-44
2021/07/09 12:15:20;;;;;;;11.20;9.80;;;22.80;64.50;;;;;;5060326;28;20461;-44
2021/07/09 12:17:56;;;;;;;13.43;9.37;;;22.80;66.30;;;;;;5056681;28;20499;-44
2021/07/09 12:20:23;;;;;;;9.57;8.50;;;22.70;67.40;;;;;;5057557;28;20454;-44
2021/07/09 12:23:05;;;;;;;9.60;8.40;;;22.70;66.70;;;;;;5054843;28;21070;-44
2021/07/09 12:25:34;;;;;;;9.10;7.40;;;22.70;66.80;;;;;;5055073;28;20457;-44
2021/07/09 12:28:06;;;;;;;8.47;7.67;;;22.80;65.50;;;;;;5060186;28;20450;-44
2021/07/09 12:30:41;;;;;;;8.47;7.67;;;22.90;64.30;;;;;;5058731;28;20449;-44
2021/07/09 12:33:15;;;;;;;12.00;8.40;;;23.00;64.60;;;;;;5058957;28;20467;-44
2021/07/09 12:35:58;;;;;;;6.73;6.13;;;23.10;64.70;;;;;;5050447;28;20449;-44
2021/07/09 12:38:25;;;;;;;10.13;8.40;;;23.00;64.90;;;;;;5058582;28;20485;-44
2021/07/09 12:41:00;;;;;;;13.70;9.00;;;22.70;70.00;;;;;;5088946;28;20455;-43
2021/07/09 12:43:50;;;;;;;11.60;8.33;;;22.40;72.00;;;;;;5058460;28;20453;-44
2021/07/09 12:46:22;;;;;;;13.30;9.10;;;22.10;74.00;;;;;;5058044;28;20544;-44